sensor_id;sensor_type;location;lat;lon;timestamp;pressure;altitude;pressure_sealevel;temperature;humidity
23339;BME280;11841;49.368;20.962;2022-07-29T00:00:49;96088.69;;;16.84;87.73
23339;BME280;11841;49.368;20.962;2022-07-29T00:03:15;96085.13;;;16.78;87.61
23339;BME280;11841;49.368;20.962;2022-07-29T00:05:42;96082.63;;;16.72;87.67
23339;BME280;11841;49.368;20.962;2022-07-29T00:08:09;96079.63;;;16.68;87.98
23339;BME280;11841;49.368;20.962;2022-07-29T00:10:38;96075.03;;;16.64;87.84
23339;BME280;11841;49.368;20.962;2022-07-29T00:13:05;96081.34;;;16.58;87.82
23339;BME280;11841;49.368;20.962;2022-07-29T00:15:31;96083.94;;;16.53;88.00
23339;BME280;11841;49.368;20.962;2022-07-29T00:17:58;96080.72;;;16.51;88.08
23339;BME280;11841;49.368;20.962;2022-07-29T00:20:24;96070.81;;;16.51;87.81
23339;BME280;11841;49.368;20.962;2022-07-29T00:22:51;96069.69;;;16.47;87.84
23339;BME280;11841;49.368;20.962;2022-07-29T00:25:18;96072.81;;;16.44;87.54
23339;BME280;11841;49.368;20.962;2022-07-29T00:27:45;96072.41;;;16.36;87.85
23339;BME280;11841;49.368;20.962;2022-07-29T00:30:12;96073.72;;;16.33;88.66
23339;BME280;11841;49.368;20.962;2022-07-29T00:32:39;96081.50;;;16.35;89.60
23339;BME280;11841;49.368;20.962;2022-07-29T00:35:06;96077.53;;;16.37;89.82
23339;BME280;11841;49.368;20.962;2022-07-29T00:38:02;96079.06;;;16.33;89.24
23339;BME280;11841;49.368;20.962;2022-07-29T00:40:28;96078.50;;;16.31;88.68
23339;BME280;11841;49.368;20.962;2022-07-29T00:42:55;96081.66;;;16.28;88.43
23339;BME280;11841;49.368;20.962;2022-07-29T00:45:22;96084.59;;;16.27;88.35
23339;BME280;11841;49.368;20.962;2022-07-29T00:47:48;96079.41;;;16.20;88.90
23339;BME280;11841;49.368;20.962;2022-07-29T00:50:16;96081.50;;;16.18;89.42
23339;BME280;11841;49.368;20.962;2022-07-29T00:52:43;96072.91;;;16.16;89.57
23339;BME280;11841;49.368;20.962;2022-07-29T00:55:13;96074.19;;;16.14;88.95
23339;BME280;11841;49.368;20.962;2022-07-29T00:57:42;96069.56;;;16.09;88.61
23339;BME280;11841;49.368;20.962;2022-07-29T01:00:12;96070.53;;;16.03;89.05
23339;BME280;11841;49.368;20.962;2022-07-29T01:02:39;96065.66;;;16.00;88.94
23339;BME280;11841;49.368;20.962;2022-07-29T01:05:06;96067.22;;;15.96;88.70
23339;BME280;11841;49.368;20.962;2022-07-29T01:07:34;96070.38;;;15.93;88.69
23339;BME280;11841;49.368;20.962;2022-07-29T01:10:03;96068.25;;;15.95;88.46
23339;BME280;11841;49.368;20.962;2022-07-29T01:12:31;96071.06;;;15.89;88.23
23339;BME280;11841;49.368;20.962;2022-07-29T01:15:02;96064.59;;;15.85;88.37
23339;BME280;11841;49.368;20.962;2022-07-29T01:17:36;96065.06;;;15.82;88.31
23339;BME280;11841;49.368;20.962;2022-07-29T01:20:31;96060.69;;;15.76;88.02
23339;BME280;11841;49.368;20.962;2022-07-29T01:23:20;96059.53;;;15.71;87.95
23339;BME280;11841;49.368;20.962;2022-07-29T01:26:34;96059.69;;;15.65;87.87
23339;BME280;11841;49.368;20.962;2022-07-29T01:31:57;96052.06;;;15.57;87.63
23339;BME280;11841;49.368;20.962;2022-07-29T01:34:37;96039.19;;;15.54;87.51
23339;BME280;11841;49.368;20.962;2022-07-29T01:39:52;96040.38;;;15.46;89.06
23339;BME280;11841;49.368;20.962;2022-07-29T01:42:30;96039.53;;;15.46;89.59
23339;BME280;11841;49.368;20.962;2022-07-29T01:45:15;96051.88;;;15.47;89.02
23339;BME280;11841;49.368;20.962;2022-07-29T01:50:18;96048.88;;;15.43;88.95
23339;BME280;11841;49.368;20.962;2022-07-29T01:52:56;96047.47;;;15.41;88.88
23339;BME280;11841;49.368;20.962;2022-07-29T01:55:29;96045.63;;;15.41;88.91
23339;BME280;11841;49.368;20.962;2022-07-29T01:57:58;96046.06;;;15.38;89.12
23339;BME280;11841;49.368;20.962;2022-07-29T02:00:27;96043.88;;;15.35;89.03
23339;BME280;11841;49.368;20.962;2022-07-29T02:02:55;96048.41;;;15.35;88.99
23339;BME280;11841;49.368;20.962;2022-07-29T02:05:25;96046.31;;;15.37;89.03
23339;BME280;11841;49.368;20.962;2022-07-29T02:07:55;96046.78;;;15.34;89.26
23339;BME280;11841;49.368;20.962;2022-07-29T02:10:30;96047.00;;;15.32;89.38
23339;BME280;11841;49.368;20.962;2022-07-29T02:12:58;96047.25;;;15.31;89.38
23339;BME280;11841;49.368;20.962;2022-07-29T02:15:27;96041.13;;;15.30;89.32
23339;BME280;11841;49.368;20.962;2022-07-29T02:17:58;96041.81;;;15.26;89.70
23339;BME280;11841;49.368;20.962;2022-07-29T02:20:27;96045.28;;;15.26;89.99
23339;BME280;11841;49.368;20.962;2022-07-29T02:22:55;96039.63;;;15.23;89.79
23339;BME280;11841;49.368;20.962;2022-07-29T02:25:23;96033.13;;;15.19;89.42
23339;BME280;11841;49.368;20.962;2022-07-29T02:28:03;96032.56;;;15.17;89.22
23339;BME280;11841;49.368;20.962;2022-07-29T02:30:31;96031.97;;;15.15;89.41
23339;BME280;11841;49.368;20.962;2022-07-29T02:32:58;96037.56;;;15.13;89.36
23339;BME280;11841;49.368;20.962;2022-07-29T02:35:25;96031.31;;;15.08;89.22
23339;BME280;11841;49.368;20.962;2022-07-29T02:37:59;96039.78;;;15.05;89.48
23339;BME280;11841;49.368;20.962;2022-07-29T02:40:46;96038.72;;;15.06;89.03
23339;BME280;11841;49.368;20.962;2022-07-29T02:43:13;96030.38;;;15.02;89.00
23339;BME280;11841;49.368;20.962;2022-07-29T02:45:40;96025.28;;;15.01;88.79
23339;BME280;11841;49.368;20.962;2022-07-29T02:48:13;96031.09;;;14.98;88.48
23339;BME280;11841;49.368;20.962;2022-07-29T02:50:50;96034.47;;;14.93;88.73
23339;BME280;11841;49.368;20.962;2022-07-29T02:53:20;96027.41;;;14.87;88.63
23339;BME280;11841;49.368;20.962;2022-07-29T02:55:52;96020.09;;;14.83;88.78
23339;BME280;11841;49.368;20.962;2022-07-29T02:58:25;96023.22;;;14.80;88.84
23339;BME280;11841;49.368;20.962;2022-07-29T03:01:15;96025.78;;;14.75;88.79
23339;BME280;11841;49.368;20.962;2022-07-29T03:03:49;96023.13;;;14.75;88.81
23339;BME280;11841;49.368;20.962;2022-07-29T03:06:17;96027.91;;;14.73;88.68
23339;BME280;11841;49.368;20.962;2022-07-29T03:09:02;96032.66;;;14.71;88.71
23339;BME280;11841;49.368;20.962;2022-07-29T03:11:36;96036.84;;;14.67;88.74
23339;BME280;11841;49.368;20.962;2022-07-29T03:14:15;96031.16;;;14.63;88.98
23339;BME280;11841;49.368;20.962;2022-07-29T03:16:43;96023.03;;;14.58;88.57
23339;BME280;11841;49.368;20.962;2022-07-29T03:19:10;96034.06;;;14.62;88.60
23339;BME280;11841;49.368;20.962;2022-07-29T03:21:37;96031.03;;;14.58;88.31
23339;BME280;11841;49.368;20.962;2022-07-29T03:24:03;96033.94;;;14.57;88.61
23339;BME280;11841;49.368;20.962;2022-07-29T03:26:35;96030.94;;;14.53;88.61
23339;BME280;11841;49.368;20.962;2022-07-29T03:29:02;96020.50;;;14.51;88.31
23339;BME280;11841;49.368;20.962;2022-07-29T03:31:29;96024.66;;;14.47;88.90
23339;BME280;11841;49.368;20.962;2022-07-29T03:33:56;96032.66;;;14.47;89.03
23339;BME280;11841;49.368;20.962;2022-07-29T03:36:23;96039.41;;;14.50;89.08
23339;BME280;11841;49.368;20.962;2022-07-29T03:38:51;96034.88;;;14.50;88.99
23339;BME280;11841;49.368;20.962;2022-07-29T03:41:18;96027.44;;;14.52;88.93
23339;BME280;11841;49.368;20.962;2022-07-29T03:43:49;96025.00;;;14.51;88.97
23339;BME280;11841;49.368;20.962;2022-07-29T03:46:17;96027.44;;;14.52;88.93
23339;BME280;11841;49.368;20.962;2022-07-29T03:48:48;96028.50;;;14.51;89.29
23339;BME280;11841;49.368;20.962;2022-07-29T03:51:17;96024.22;;;14.50;89.68
23339;BME280;11841;49.368;20.962;2022-07-29T03:53:58;96022.56;;;14.49;90.05
23339;BME280;11841;49.368;20.962;2022-07-29T03:56:27;96027.44;;;14.52;90.43
23339;BME280;11841;49.368;20.962;2022-07-29T03:58:54;96028.59;;;14.57;90.56
23339;BME280;11841;49.368;20.962;2022-07-29T04:01:22;96030.25;;;14.58;90.45
23339;BME280;11841;49.368;20.962;2022-07-29T04:03:49;96030.81;;;14.60;90.88
23339;BME280;11841;49.368;20.962;2022-07-29T04:06:15;96022.34;;;14.63;90.82
23339;BME280;11841;49.368;20.962;2022-07-29T04:08:42;96017.56;;;14.65;90.86
23339;BME280;11841;49.368;20.962;2022-07-29T04:11:09;96017.56;;;14.65;91.48
23339;BME280;11841;49.368;20.962;2022-07-29T04:13:35;96005.88;;;14.66;91.69
23339;BME280;11841;49.368;20.962;2022-07-29T04:16:02;96024.66;;;14.71;92.17
23339;BME280;11841;49.368;20.962;2022-07-29T04:18:29;96008.16;;;14.74;92.72
23339;BME280;11841;49.368;20.962;2022-07-29T04:20:55;96017.34;;;14.78;92.76
23339;BME280;11841;49.368;20.962;2022-07-29T04:23:22;96022.78;;;14.83;93.63
23339;BME280;11841;49.368;20.962;2022-07-29T04:25:48;96021.25;;;14.87;93.99
23339;BME280;11841;49.368;20.962;2022-07-29T04:28:15;96019.72;;;14.91;93.90
23339;BME280;11841;49.368;20.962;2022-07-29T04:30:42;96021.69;;;14.95;94.06
23339;BME280;11841;49.368;20.962;2022-07-29T04:33:09;96022.03;;;14.99;94.12
23339;BME280;11841;49.368;20.962;2022-07-29T04:35:37;96012.50;;;15.03;93.60
23339;BME280;11841;49.368;20.962;2022-07-29T04:38:15;96020.38;;;15.09;94.11
23339;BME280;11841;49.368;20.962;2022-07-29T04:40:42;96014.81;;;15.11;95.14
23339;BME280;11841;49.368;20.962;2022-07-29T04:43:09;96016.75;;;15.15;95.04
23339;BME280;11841;49.368;20.962;2022-07-29T04:45:37;96017.09;;;15.19;95.82
23339;BME280;11841;49.368;20.962;2022-07-29T04:48:04;96013.38;;;15.20;96.50
23339;BME280;11841;49.368;20.962;2022-07-29T04:50:31;96010.81;;;15.25;96.58
23339;BME280;11841;49.368;20.962;2022-07-29T04:52:58;96018.44;;;15.33;96.39
23339;BME280;11841;49.368;20.962;2022-07-29T04:55:24;96011.13;;;15.40;96.29
23339;BME280;11841;49.368;20.962;2022-07-29T04:57:51;96015.50;;;15.46;96.46
23339;BME280;11841;49.368;20.962;2022-07-29T05:00:18;96010.25;;;15.51;97.14
23339;BME280;11841;49.368;20.962;2022-07-29T05:02:44;96016.25;;;15.58;96.70
23339;BME280;11841;49.368;20.962;2022-07-29T05:05:11;96013.66;;;15.63;97.60
23339;BME280;11841;49.368;20.962;2022-07-29T05:07:40;96017.50;;;15.67;97.62
23339;BME280;11841;49.368;20.962;2022-07-29T05:10:08;96013.84;;;15.73;98.14
23339;BME280;11841;49.368;20.962;2022-07-29T05:12:35;96015.00;;;15.77;98.31
23339;BME280;11841;49.368;20.962;2022-07-29T05:15:01;96022.06;;;15.83;98.65
23339;BME280;11841;49.368;20.962;2022-07-29T05:17:28;96014.91;;;15.89;98.47
23339;BME280;11841;49.368;20.962;2022-07-29T05:19:55;96018.50;;;15.94;98.46
23339;BME280;11841;49.368;20.962;2022-07-29T05:22:21;96007.88;;;15.99;99.16
23339;BME280;11841;49.368;20.962;2022-07-29T05:24:48;96012.28;;;16.05;99.12
23339;BME280;11841;49.368;20.962;2022-07-29T05:27:15;96019.06;;;16.13;99.11
23339;BME280;11841;49.368;20.962;2022-07-29T05:29:41;96018.31;;;16.17;99.41
23339;BME280;11841;49.368;20.962;2022-07-29T05:32:12;96010.97;;;16.24;99.13
23339;BME280;11841;49.368;20.962;2022-07-29T05:34:39;96010.78;;;16.31;99.34
23339;BME280;11841;49.368;20.962;2022-07-29T05:37:18;96020.28;;;16.38;99.49
23339;BME280;11841;49.368;20.962;2022-07-29T05:39:46;96018.25;;;16.45;98.98
23339;BME280;11841;49.368;20.962;2022-07-29T05:42:16;96018.09;;;16.52;99.29
23339;BME280;11841;49.368;20.962;2022-07-29T05:44:42;96007.22;;;16.58;99.79
23339;BME280;11841;49.368;20.962;2022-07-29T05:47:09;96011.59;;;16.64;100.00
23339;BME280;11841;49.368;20.962;2022-07-29T05:49:35;96014.34;;;16.69;100.00
23339;BME280;11841;49.368;20.962;2022-07-29T05:52:03;96001.03;;;16.74;99.73
23339;BME280;11841;49.368;20.962;2022-07-29T05:54:29;96001.09;;;16.79;99.04
23339;BME280;11841;49.368;20.962;2022-07-29T05:56:56;96010.78;;;16.85;99.47
23339;BME280;11841;49.368;20.962;2022-07-29T05:59:22;96014.91;;;16.93;99.02
23339;BME280;11841;49.368;20.962;2022-07-29T06:01:55;96007.25;;;17.02;99.13
23339;BME280;11841;49.368;20.962;2022-07-29T06:04:23;96011.34;;;17.09;99.33
23339;BME280;11841;49.368;20.962;2022-07-29T06:06:50;96008.00;;;17.19;99.76
23339;BME280;11841;49.368;20.962;2022-07-29T06:09:16;96009.72;;;17.30;99.48
23339;BME280;11841;49.368;20.962;2022-07-29T06:11:43;96004.97;;;17.37;99.41
23339;BME280;11841;49.368;20.962;2022-07-29T06:14:10;96000.56;;;17.47;99.05
23339;BME280;11841;49.368;20.962;2022-07-29T06:16:36;96007.38;;;17.60;97.69
23339;BME280;11841;49.368;20.962;2022-07-29T06:19:03;96000.53;;;17.69;97.14
23339;BME280;11841;49.368;20.962;2022-07-29T06:21:30;96004.13;;;17.79;97.55
23339;BME280;11841;49.368;20.962;2022-07-29T06:23:57;96011.69;;;17.87;96.66
23339;BME280;11841;49.368;20.962;2022-07-29T06:26:23;96014.41;;;17.92;96.63
23339;BME280;11841;49.368;20.962;2022-07-29T06:28:56;96015.31;;;18.03;96.53
23339;BME280;11841;49.368;20.962;2022-07-29T06:31:23;96008.44;;;18.12;96.14
23339;BME280;11841;49.368;20.962;2022-07-29T06:33:50;96012.19;;;18.16;95.98
23339;BME280;11841;49.368;20.962;2022-07-29T06:36:19;96001.56;;;18.31;96.66
23339;BME280;11841;49.368;20.962;2022-07-29T06:38:48;96015.09;;;18.41;95.52
23339;BME280;11841;49.368;20.962;2022-07-29T06:41:17;96016.22;;;18.45;94.84
23339;BME280;11841;49.368;20.962;2022-07-29T06:43:45;96007.41;;;18.55;94.61
23339;BME280;11841;49.368;20.962;2022-07-29T06:46:20;96005.69;;;18.80;93.58
23339;BME280;11841;49.368;20.962;2022-07-29T06:48:47;96014.66;;;19.06;91.92
23339;BME280;11841;49.368;20.962;2022-07-29T06:51:14;95997.84;;;19.25;90.67
23339;BME280;11841;49.368;20.962;2022-07-29T06:53:42;95994.94;;;19.32;90.87
23339;BME280;11841;49.368;20.962;2022-07-29T06:56:29;95996.25;;;19.35;92.00
23339;BME280;11841;49.368;20.962;2022-07-29T06:58:57;95996.53;;;19.38;91.87
23339;BME280;11841;49.368;20.962;2022-07-29T07:01:23;96000.59;;;19.46;91.73
23339;BME280;11841;49.368;20.962;2022-07-29T07:03:50;95997.94;;;19.51;92.18
23339;BME280;11841;49.368;20.962;2022-07-29T07:06:16;95993.66;;;19.60;91.55
23339;BME280;11841;49.368;20.962;2022-07-29T07:08:43;95997.16;;;19.65;91.76
23339;BME280;11841;49.368;20.962;2022-07-29T07:11:10;95991.78;;;19.75;90.54
23339;BME280;11841;49.368;20.962;2022-07-29T07:13:36;95993.44;;;19.91;88.94
23339;BME280;11841;49.368;20.962;2022-07-29T07:16:03;95993.69;;;20.10;87.93
23339;BME280;11841;49.368;20.962;2022-07-29T07:18:30;95992.66;;;20.26;87.24
23339;BME280;11841;49.368;20.962;2022-07-29T07:20:57;95995.34;;;20.31;86.14
23339;BME280;11841;49.368;20.962;2022-07-29T07:23:24;96000.75;;;20.31;86.46
23339;BME280;11841;49.368;20.962;2022-07-29T07:25:51;95996.97;;;20.32;85.88
23339;BME280;11841;49.368;20.962;2022-07-29T07:28:18;95990.75;;;20.36;85.92
23339;BME280;11841;49.368;20.962;2022-07-29T07:30:50;95999.66;;;20.42;86.43
23339;BME280;11841;49.368;20.962;2022-07-29T07:33:17;95993.97;;;20.43;86.40
23339;BME280;11841;49.368;20.962;2022-07-29T07:35:44;95991.56;;;20.47;86.29
23339;BME280;11841;49.368;20.962;2022-07-29T07:38:11;95989.94;;;20.51;86.16
23339;BME280;11841;49.368;20.962;2022-07-29T07:40:37;95996.38;;;20.55;85.79
23339;BME280;11841;49.368;20.962;2022-07-29T07:43:04;95995.31;;;20.61;85.16
23339;BME280;11841;49.368;20.962;2022-07-29T07:45:30;95997.97;;;20.71;84.82
23339;BME280;11841;49.368;20.962;2022-07-29T07:47:59;95990.97;;;20.80;83.53
23339;BME280;11841;49.368;20.962;2022-07-29T07:50:26;95982.31;;;20.83;83.10
23339;BME280;11841;49.368;20.962;2022-07-29T07:52:54;95989.84;;;20.86;83.00
23339;BME280;11841;49.368;20.962;2022-07-29T07:55:25;95982.03;;;20.90;83.69
23339;BME280;11841;49.368;20.962;2022-07-29T07:57:52;95988.75;;;20.97;84.34
23339;BME280;11841;49.368;20.962;2022-07-29T08:00:20;95986.59;;;21.04;84.13
23339;BME280;11841;49.368;20.962;2022-07-29T08:02:49;95980.63;;;21.12;82.98
23339;BME280;11841;49.368;20.962;2022-07-29T08:05:17;95980.59;;;21.22;82.59
23339;BME280;11841;49.368;20.962;2022-07-29T08:07:47;95984.25;;;21.46;80.41
23339;BME280;11841;49.368;20.962;2022-07-29T08:10:15;95988.75;;;21.61;78.83
23339;BME280;11841;49.368;20.962;2022-07-29T08:13:04;95988.13;;;21.74;78.31
23339;BME280;11841;49.368;20.962;2022-07-29T08:15:30;95982.19;;;21.77;76.29
23339;BME280;11841;49.368;20.962;2022-07-29T08:17:57;95979.66;;;21.91;77.70
23339;BME280;11841;49.368;20.962;2022-07-29T08:20:24;95977.16;;;22.04;78.18
23339;BME280;11841;49.368;20.962;2022-07-29T08:22:51;95982.78;;;22.08;78.26
23339;BME280;11841;49.368;20.962;2022-07-29T08:25:19;95976.31;;;22.09;77.54
23339;BME280;11841;49.368;20.962;2022-07-29T08:27:47;95976.25;;;22.14;76.62
23339;BME280;11841;49.368;20.962;2022-07-29T08:30:14;95982.16;;;22.21;77.24
23339;BME280;11841;49.368;20.962;2022-07-29T08:32:40;95978.22;;;22.37;76.11
23339;BME280;11841;49.368;20.962;2022-07-29T08:35:24;95982.16;;;22.54;75.12
23339;BME280;11841;49.368;20.962;2022-07-29T08:37:51;95975.03;;;22.63;75.58
23339;BME280;11841;49.368;20.962;2022-07-29T08:40:21;95967.56;;;22.79;74.60
23339;BME280;11841;49.368;20.962;2022-07-29T08:42:58;95974.94;;;22.97;73.60
23339;BME280;11841;49.368;20.962;2022-07-29T08:45:25;95971.59;;;23.05;73.01
23339;BME280;11841;49.368;20.962;2022-07-29T08:47:52;95976.28;;;23.18;72.05
23339;BME280;11841;49.368;20.962;2022-07-29T08:50:19;95963.19;;;23.30;71.37
23339;BME280;11841;49.368;20.962;2022-07-29T08:52:46;95967.69;;;23.40;70.66
23339;BME280;11841;49.368;20.962;2022-07-29T08:55:14;95962.44;;;23.48;71.08
23339;BME280;11841;49.368;20.962;2022-07-29T08:57:46;95964.41;;;23.61;67.74
23339;BME280;11841;49.368;20.962;2022-07-29T09:00:23;95969.81;;;23.61;69.61
23339;BME280;11841;49.368;20.962;2022-07-29T09:02:57;95962.22;;;23.63;68.87
23339;BME280;11841;49.368;20.962;2022-07-29T09:05:25;95960.50;;;23.67;69.27
23339;BME280;11841;49.368;20.962;2022-07-29T09:07:53;95965.84;;;23.72;64.91
23339;BME280;11841;49.368;20.962;2022-07-29T09:10:20;95964.09;;;23.81;64.22
23339;BME280;11841;49.368;20.962;2022-07-29T09:12:47;95957.53;;;23.87;63.73
23339;BME280;11841;49.368;20.962;2022-07-29T09:15:15;95963.31;;;24.00;63.65
23339;BME280;11841;49.368;20.962;2022-07-29T09:17:48;95958.63;;;24.05;64.34
23339;BME280;11841;49.368;20.962;2022-07-29T09:20:17;95961.03;;;24.07;65.00
23339;BME280;11841;49.368;20.962;2022-07-29T09:22:45;95956.56;;;24.16;65.03
23339;BME280;11841;49.368;20.962;2022-07-29T09:25:35;95958.66;;;24.19;62.60
23339;BME280;11841;49.368;20.962;2022-07-29T09:28:07;95956.09;;;24.27;63.25
23339;BME280;11841;49.368;20.962;2022-07-29T09:30:35;95955.59;;;24.39;59.49
23339;BME280;11841;49.368;20.962;2022-07-29T09:33:03;95955.22;;;24.45;58.85
23339;BME280;11841;49.368;20.962;2022-07-29T09:35:30;95957.94;;;24.45;59.74
23339;BME280;11841;49.368;20.962;2022-07-29T09:37:57;95951.53;;;24.55;60.25
23339;BME280;11841;49.368;20.962;2022-07-29T09:40:26;95952.47;;;24.64;60.02
23339;BME280;11841;49.368;20.962;2022-07-29T09:42:53;95944.19;;;24.74;58.49
23339;BME280;11841;49.368;20.962;2022-07-29T09:45:31;95941.16;;;24.75;60.04
23339;BME280;11841;49.368;20.962;2022-07-29T09:47:58;95938.56;;;24.84;60.33
23339;BME280;11841;49.368;20.962;2022-07-29T09:50:37;95942.78;;;24.90;57.86
23339;BME280;11841;49.368;20.962;2022-07-29T09:53:04;95942.78;;;24.90;58.49
23339;BME280;11841;49.368;20.962;2022-07-29T09:55:31;95933.91;;;24.98;59.76
23339;BME280;11841;49.368;20.962;2022-07-29T09:58:16;95934.22;;;25.10;57.32
23339;BME280;11841;49.368;20.962;2022-07-29T10:00:44;95938.16;;;25.18;56.87
23339;BME280;11841;49.368;20.962;2022-07-29T10:03:13;95929.59;;;25.24;57.03
23339;BME280;11841;49.368;20.962;2022-07-29T10:05:40;95935.91;;;25.33;56.32
23339;BME280;11841;49.368;20.962;2022-07-29T10:08:09;95931.50;;;25.37;56.91
23339;BME280;11841;49.368;20.962;2022-07-29T10:10:39;95931.50;;;25.37;55.89
23339;BME280;11841;49.368;20.962;2022-07-29T10:13:07;95935.13;;;25.46;56.10
23339;BME280;11841;49.368;20.962;2022-07-29T10:15:42;95925.84;;;25.47;54.56
23339;BME280;11841;49.368;20.962;2022-07-29T10:18:13;95925.47;;;25.54;55.54
23339;BME280;11841;49.368;20.962;2022-07-29T10:20:40;95916.38;;;25.58;53.10
23339;BME280;11841;49.368;20.962;2022-07-29T10:23:06;95915.28;;;25.59;53.53
23339;BME280;11841;49.368;20.962;2022-07-29T10:25:33;95908.75;;;25.60;55.40
23339;BME280;11841;49.368;20.962;2022-07-29T10:28:00;95918.69;;;25.65;54.98
23339;BME280;11841;49.368;20.962;2022-07-29T10:30:27;95917.34;;;25.76;54.33
23339;BME280;11841;49.368;20.962;2022-07-29T10:36:07;95918.75;;;25.73;54.38
23339;BME280;11841;49.368;20.962;2022-07-29T10:44:03;95912.06;;;25.57;60.35
23339;BME280;11841;49.368;20.962;2022-07-29T10:46:37;95916.81;;;25.52;59.97
23339;BME280;11841;49.368;20.962;2022-07-29T10:49:11;95920.16;;;25.49;60.96
23339;BME280;11841;49.368;20.962;2022-07-29T10:54:17;95916.81;;;25.52;59.85
23339;BME280;11841;49.368;20.962;2022-07-29T10:56:45;95916.59;;;25.62;57.37
23339;BME280;11841;49.368;20.962;2022-07-29T11:01:49;95914.13;;;25.74;58.14
23339;BME280;11841;49.368;20.962;2022-07-29T11:07:33;95907.28;;;25.76;55.68
23339;BME280;11841;49.368;20.962;2022-07-29T11:15:16;95898.94;;;25.95;55.25
23339;BME280;11841;49.368;20.962;2022-07-29T11:20:48;95891.50;;;26.23;55.33
23339;BME280;11841;49.368;20.962;2022-07-29T11:23:40;95894.81;;;26.42;54.80
23339;BME280;11841;49.368;20.962;2022-07-29T11:28:48;95886.38;;;26.52;52.54
23339;BME280;11841;49.368;20.962;2022-07-29T11:31:34;95878.72;;;26.54;53.22
23339;BME280;11841;49.368;20.962;2022-07-29T11:39:32;95888.09;;;26.70;53.56
23339;BME280;11841;49.368;20.962;2022-07-29T11:45:04;95887.44;;;26.73;51.22
23339;BME280;11841;49.368;20.962;2022-07-29T11:47:54;95881.41;;;26.76;51.31
23339;BME280;11841;49.368;20.962;2022-07-29T11:50:32;95882.22;;;26.85;50.82
23339;BME280;11841;49.368;20.962;2022-07-29T11:53:02;95881.13;;;26.86;50.83
23339;BME280;11841;49.368;20.962;2022-07-29T11:55:37;95892.13;;;26.81;50.74
23339;BME280;11841;49.368;20.962;2022-07-29T11:58:21;95885.69;;;26.68;51.86
23339;BME280;11841;49.368;20.962;2022-07-29T12:00:51;95885.69;;;26.68;54.04
23339;BME280;11841;49.368;20.962;2022-07-29T12:03:26;95885.84;;;26.72;54.74
23339;BME280;11841;49.368;20.962;2022-07-29T12:06:01;95880.91;;;26.74;56.89
23339;BME280;11841;49.368;20.962;2022-07-29T12:08:27;95883.78;;;26.69;56.76
23339;BME280;11841;49.368;20.962;2022-07-29T12:10:54;95881.13;;;26.55;55.32
23339;BME280;11841;49.368;20.962;2022-07-29T12:13:21;95881.53;;;26.40;56.90
23339;BME280;11841;49.368;20.962;2022-07-29T12:16:03;95883.22;;;26.28;56.93
23339;BME280;11841;49.368;20.962;2022-07-29T12:18:31;95886.25;;;26.26;58.06
23339;BME280;11841;49.368;20.962;2022-07-29T12:21:01;95891.03;;;26.29;59.14
23339;BME280;11841;49.368;20.962;2022-07-29T12:23:31;95894.84;;;26.19;59.46
23339;BME280;11841;49.368;20.962;2022-07-29T12:26:04;95874.94;;;26.10;60.64
23339;BME280;11841;49.368;20.962;2022-07-29T12:28:38;95873.34;;;26.09;60.27
23339;BME280;11841;49.368;20.962;2022-07-29T12:31:05;95871.56;;;26.05;61.01
23339;BME280;11841;49.368;20.962;2022-07-29T12:33:33;95865.91;;;26.01;61.80
23339;BME280;11841;49.368;20.962;2022-07-29T12:36:02;95863.00;;;26.11;61.23
23339;BME280;11841;49.368;20.962;2022-07-29T12:38:33;95858.50;;;26.15;60.72
23339;BME280;11841;49.368;20.962;2022-07-29T12:41:01;95851.63;;;26.09;61.15
23339;BME280;11841;49.368;20.962;2022-07-29T12:43:30;95846.69;;;26.11;61.08
23339;BME280;11841;49.368;20.962;2022-07-29T12:45:57;95850.72;;;26.23;61.15
23339;BME280;11841;49.368;20.962;2022-07-29T12:48:39;95846.16;;;26.32;60.73
23339;BME280;11841;49.368;20.962;2022-07-29T12:51:08;95847.59;;;26.38;60.35
23339;BME280;11841;49.368;20.962;2022-07-29T12:53:36;95842.84;;;26.43;60.85
23339;BME280;11841;49.368;20.962;2022-07-29T12:56:04;95845.09;;;26.50;59.99
23339;BME280;11841;49.368;20.962;2022-07-29T12:58:51;95836.91;;;26.41;59.33
23339;BME280;11841;49.368;20.962;2022-07-29T13:01:18;95839.31;;;26.43;59.68
23339;BME280;11841;49.368;20.962;2022-07-29T13:03:58;95839.63;;;26.41;59.39
23339;BME280;11841;49.368;20.962;2022-07-29T13:09:10;95834.88;;;26.47;59.24
23339;BME280;11841;49.368;20.962;2022-07-29T13:11:40;95831.00;;;26.48;58.12
23339;BME280;11841;49.368;20.962;2022-07-29T13:14:34;95831.00;;;26.48;58.41
23339;BME280;11841;49.368;20.962;2022-07-29T13:17:13;95823.97;;;26.47;58.16
23339;BME280;11841;49.368;20.962;2022-07-29T13:19:51;95824.13;;;26.42;57.48
23339;BME280;11841;49.368;20.962;2022-07-29T13:22:23;95825.22;;;26.41;58.08
23339;BME280;11841;49.368;20.962;2022-07-29T13:24:55;95828.25;;;26.39;58.19
23339;BME280;11841;49.368;20.962;2022-07-29T13:27:26;95824.28;;;26.37;56.97
23339;BME280;11841;49.368;20.962;2022-07-29T13:29:55;95823.28;;;26.33;56.90
23339;BME280;11841;49.368;20.962;2022-07-29T13:32:25;95815.44;;;26.31;57.13
23339;BME280;11841;49.368;20.962;2022-07-29T13:34:55;95809.19;;;26.31;57.00
23339;BME280;11841;49.368;20.962;2022-07-29T13:37:22;95805.38;;;26.32;57.45
23339;BME280;11841;49.368;20.962;2022-07-29T13:39:48;95800.91;;;26.36;58.10
23339;BME280;11841;49.368;20.962;2022-07-29T13:42:18;95796.16;;;26.50;59.72
23339;BME280;11841;49.368;20.962;2022-07-29T13:44:45;95790.16;;;26.70;58.33
23339;BME280;11841;49.368;20.962;2022-07-29T13:47:11;95785.25;;;26.89;56.57
23339;BME280;11841;49.368;20.962;2022-07-29T13:49:39;95788.63;;;26.94;55.16
23339;BME280;11841;49.368;20.962;2022-07-29T13:52:05;95786.53;;;27.00;55.41